Terminal Aerodrome Forecast
Issued by NWS

Home | Current Version | Previous Version | Text Only | Print | Product List | Glossary On
Versions: 1 2 3 4 5 6 7 8 9 10 11 12 13 14 15 16 17 18 19 20 21 22 23 24 25 26 27 28
000
FTUS44 KHGX 200522 CCA
TAFSGR
TAF COR
KSGR 200522Z 2006/2106 15013G23KT P6SM BKN015 OVC025
     FM200800 15012KT P6SM SCT008 OVC012
     FM201500 16014G24KT P6SM BKN015 OVC025
     FM201800 16016G26KT P6SM VCTS BKN025CB BKN050 OVC120
     FM202100 15019KT 5SM -TSRA OVC025CB
     FM210100 16013KT P6SM VCSH BKN015 OVC025=

USA.gov is the U.S. government's official web portal to all federal, state and local government web resources and services.